الكل
Nordhorn-Lingen Airport ZOW حالة الطقس
There is no TAF data available at ZOW or any nearby airports.
There is no METAR data available at ZOW. Showing METAR data for ETWM (19 mi شمال).
محفوظات أحدث تقرير روتيني عن حالة الطقس من أجل الطيران (الميتار) ETWM ( لا توجد بيانات لـZOW)
| Date | Time (CEST) | Flight Rules | Wind Dir. | Speed | Type | Height AGL (ft) | Visibility | Temp (°C) | Temp (°F) | Dew Point (°C) | Dew Point (°F) | Rel. Humid. | Pressure | Density Altitude | Remarks |
|---|---|---|---|---|---|---|---|---|---|---|---|---|---|---|---|
| 05-سبت | 14:20 | n/a | 260° | 8 kt | Missing | 19° | 66° | 11° | 51° | 60% | 1019 mb | 367 ft | |||
| 05-سبت | 13:20 | n/a | 250° | 11 kt | Missing | 19° | 66° | 10° | 50° | 56% | 1018 mb | 396 ft | |||
| 05-سبت | 12:20 | n/a | 250° | 12 kt | Missing | 18° | 64° | 10° | 50° | 59% | 1017 mb | 306 ft | Wind gusting to 27 KT | ||
| 05-سبت | 11:20 | n/a | 240° | 10 kt | Missing | 17° | 62° | 12° | 53° | 72% | 1017 mb | 186 ft | |||
| 05-سبت | 10:20 | n/a | 230° | 10 kt | Missing | 17° | 62° | 13° | 55° | 77% | 1016 mb | 216 ft | Wind gusting to 21 KT | ||
| 05-سبت | 09:20 | n/a | 230° | 8 kt | Missing | 16° | 60° | 12° | 53° | 77% | 1016 mb | 96 ft | |||
| 05-سبت | 08:20 | n/a | 210° | 6 kt | Missing | 14° | 57° | 11° | 51° | 82% | 1015 mb | -115 ft | |||
| 05-سبت | 07:20 | n/a | 210° | 5 kt | Missing | 13° | 55° | 11° | 51° | 88% | 1015 mb | -235 ft | |||
| 05-سبت | 06:20 | n/a | 200° | 4 kt | Missing | 12° | 53° | 11° | 51° | 94% | 1014 mb | -325 ft | |||
| 05-سبت | 05:20 | n/a | 200° | 4 kt | Missing | 13° | 55° | 11° | 51° | 88% | 1014 mb | -205 ft | |||
| 05-سبت | 04:20 | n/a | 210° | 4 kt | Missing | 13° | 55° | 11° | 51° | 88% | 1014 mb | -205 ft | |||
| 05-سبت | 03:20 | n/a | 210° | 4 kt | Missing | 13° | 55° | 12° | 53° | 94% | 1014 mb | -205 ft | |||
| 05-سبت | 02:20 | n/a | 210° | 5 kt | Missing | 14° | 57° | 12° | 53° | 88% | 1014 mb | -85 ft | |||
| 05-سبت | 01:20 | n/a | 220° | 5 kt | Missing | 15° | 59° | 12° | 53° | 82% | 1013 mb | 64 ft | |||
| 05-سبت | 00:20 | n/a | 220° | 5 kt | Missing | 15° | 59° | 12° | 53° | 82% | 1013 mb | 64 ft | |||
| 04-سبت | 23:20 | n/a | 230° | 6 kt | Missing | 15° | 59° | 12° | 53° | 82% | 1012 mb | 94 ft | |||
| 04-سبت | 22:20 | n/a | 230° | 5 kt | Missing | 16° | 60° | 12° | 53° | 77% | 1012 mb | 214 ft | |||
| 04-سبت | 21:20 | n/a | 240° | 7 kt | Missing | 16° | 60° | 12° | 53° | 77% | 1012 mb | 214 ft | |||
| 04-سبت | 20:20 | n/a | 250° | 8 kt | Missing | 17° | 62° | 12° | 53° | 72% | 1011 mb | 363 ft | Wind gusting to 18 KT | ||
| 04-سبت | 19:20 | n/a | 260° | 7 kt | Missing | 17° | 62° | 14° | 57° | 82% | 1010 mb | 393 ft | |||
| 04-سبت | 18:20 | n/a | 260° | 7 kt | Missing | 18° | 64° | 15° | 59° | 83% | 1009 mb | 542 ft | |||
| 04-سبت | 17:20 | n/a | 240° | 6 kt | Missing | 17° | 62° | 16° | 60° | 94% | 1009 mb | 422 ft | |||
| 04-سبت | 16:20 | n/a | 230° | 10 kt | Missing | 17° | 62° | 16° | 60° | 94% | 1008 mb | 452 ft | |||
| 04-سبت | 15:20 | n/a | 230° | 9 kt | Missing | 17° | 62° | 16° | 60° | 94% | 1008 mb | 452 ft | Wind gusting to 19 KT |
تسجيل الدخول
| مُتصفحك غير مُدعَّم. قم بترقية متصفحك |
